sensor_id;sensor_type;location;lat;lon;timestamp;P1;durP1;ratioP1;P2;durP2;ratioP2
16870;SDS011;8552;48.120;-1.456;2023-08-06T00:01:59;13.95;;;3.05;;
16870;SDS011;8552;48.120;-1.456;2023-08-06T00:04:25;6.25;;;2.03;;
16870;SDS011;8552;48.120;-1.456;2023-08-06T00:06:50;10.73;;;2.42;;
16870;SDS011;8552;48.120;-1.456;2023-08-06T00:09:16;6.55;;;2.45;;
16870;SDS011;8552;48.120;-1.456;2023-08-06T00:11:42;7.43;;;2.50;;
16870;SDS011;8552;48.120;-1.456;2023-08-06T00:14:09;12.38;;;2.40;;
16870;SDS011;8552;48.120;-1.456;2023-08-06T00:16:35;6.68;;;1.92;;
16870;SDS011;8552;48.120;-1.456;2023-08-06T00:19:11;7.00;;;2.28;;
16870;SDS011;8552;48.120;-1.456;2023-08-06T00:21:37;7.32;;;2.38;;
16870;SDS011;8552;48.120;-1.456;2023-08-06T00:24:03;8.25;;;2.30;;
16870;SDS011;8552;48.120;-1.456;2023-08-06T00:26:29;6.47;;;2.33;;
16870;SDS011;8552;48.120;-1.456;2023-08-06T00:28:54;11.27;;;2.40;;
16870;SDS011;8552;48.120;-1.456;2023-08-06T00:31:20;13.82;;;3.05;;
16870;SDS011;8552;48.120;-1.456;2023-08-06T00:33:46;11.23;;;2.65;;
16870;SDS011;8552;48.120;-1.456;2023-08-06T00:36:12;12.40;;;3.22;;
16870;SDS011;8552;48.120;-1.456;2023-08-06T00:38:37;6.63;;;2.38;;
16870;SDS011;8552;48.120;-1.456;2023-08-06T00:41:03;6.32;;;2.30;;
16870;SDS011;8552;48.120;-1.456;2023-08-06T00:43:29;9.52;;;2.95;;
16870;SDS011;8552;48.120;-1.456;2023-08-06T00:45:55;4.82;;;2.08;;
16870;SDS011;8552;48.120;-1.456;2023-08-06T00:48:21;8.85;;;2.28;;
16870;SDS011;8552;48.120;-1.456;2023-08-06T00:50:47;11.80;;;2.47;;
16870;SDS011;8552;48.120;-1.456;2023-08-06T00:53:13;7.82;;;2.20;;
16870;SDS011;8552;48.120;-1.456;2023-08-06T00:55:39;6.30;;;1.92;;
16870;SDS011;8552;48.120;-1.456;2023-08-06T00:58:05;6.07;;;2.13;;
16870;SDS011;8552;48.120;-1.456;2023-08-06T01:00:33;11.38;;;2.40;;
16870;SDS011;8552;48.120;-1.456;2023-08-06T01:02:59;10.00;;;2.08;;
16870;SDS011;8552;48.120;-1.456;2023-08-06T01:05:25;10.77;;;2.55;;
16870;SDS011;8552;48.120;-1.456;2023-08-06T01:16:12;7.05;;;3.00;;
16870;SDS011;8552;48.120;-1.456;2023-08-06T01:18:41;13.55;;;2.78;;
16870;SDS011;8552;48.120;-1.456;2023-08-06T01:21:11;9.27;;;2.72;;
16870;SDS011;8552;48.120;-1.456;2023-08-06T01:23:39;7.68;;;2.38;;
16870;SDS011;8552;48.120;-1.456;2023-08-06T01:28:58;11.98;;;2.30;;
16870;SDS011;8552;48.120;-1.456;2023-08-06T01:31:30;9.75;;;2.55;;
16870;SDS011;8552;48.120;-1.456;2023-08-06T01:33:59;9.40;;;3.00;;
16870;SDS011;8552;48.120;-1.456;2023-08-06T01:36:27;5.97;;;2.00;;
16870;SDS011;8552;48.120;-1.456;2023-08-06T01:38:53;8.27;;;2.17;;
16870;SDS011;8552;48.120;-1.456;2023-08-06T01:41:19;7.57;;;2.00;;
16870;SDS011;8552;48.120;-1.456;2023-08-06T01:43:45;5.47;;;2.15;;
16870;SDS011;8552;48.120;-1.456;2023-08-06T01:46:11;6.97;;;2.28;;
16870;SDS011;8552;48.120;-1.456;2023-08-06T01:48:36;9.52;;;2.08;;
16870;SDS011;8552;48.120;-1.456;2023-08-06T01:51:06;8.50;;;1.95;;
16870;SDS011;8552;48.120;-1.456;2023-08-06T01:53:32;10.07;;;2.40;;
16870;SDS011;8552;48.120;-1.456;2023-08-06T01:55:58;5.28;;;1.98;;
16870;SDS011;8552;48.120;-1.456;2023-08-06T01:58:23;8.07;;;2.05;;
16870;SDS011;8552;48.120;-1.456;2023-08-06T02:00:49;6.18;;;1.77;;
16870;SDS011;8552;48.120;-1.456;2023-08-06T02:03:15;8.60;;;2.50;;
16870;SDS011;8552;48.120;-1.456;2023-08-06T02:05:41;8.30;;;1.80;;
16870;SDS011;8552;48.120;-1.456;2023-08-06T02:08:07;7.45;;;2.42;;
16870;SDS011;8552;48.120;-1.456;2023-08-06T02:10:32;7.22;;;2.00;;
16870;SDS011;8552;48.120;-1.456;2023-08-06T02:12:58;6.90;;;2.28;;
16870;SDS011;8552;48.120;-1.456;2023-08-06T02:15:24;10.98;;;1.70;;
16870;SDS011;8552;48.120;-1.456;2023-08-06T02:17:50;6.50;;;2.78;;
16870;SDS011;8552;48.120;-1.456;2023-08-06T02:20:16;6.80;;;2.00;;
16870;SDS011;8552;48.120;-1.456;2023-08-06T02:22:47;8.25;;;2.20;;
16870;SDS011;8552;48.120;-1.456;2023-08-06T02:25:12;7.65;;;1.85;;
16870;SDS011;8552;48.120;-1.456;2023-08-06T02:27:43;4.20;;;1.80;;
16870;SDS011;8552;48.120;-1.456;2023-08-06T02:30:14;10.60;;;2.85;;
16870;SDS011;8552;48.120;-1.456;2023-08-06T02:32:40;8.82;;;2.00;;
16870;SDS011;8552;48.120;-1.456;2023-08-06T02:35:05;6.85;;;2.08;;
16870;SDS011;8552;48.120;-1.456;2023-08-06T02:37:35;7.03;;;2.33;;
16870;SDS011;8552;48.120;-1.456;2023-08-06T02:40:00;9.23;;;2.03;;
16870;SDS011;8552;48.120;-1.456;2023-08-06T02:42:27;6.78;;;1.75;;
16870;SDS011;8552;48.120;-1.456;2023-08-06T02:44:53;4.68;;;1.80;;
16870;SDS011;8552;48.120;-1.456;2023-08-06T02:47:23;6.05;;;1.63;;
16870;SDS011;8552;48.120;-1.456;2023-08-06T02:49:51;7.15;;;1.67;;
16870;SDS011;8552;48.120;-1.456;2023-08-06T02:52:17;8.70;;;2.40;;
16870;SDS011;8552;48.120;-1.456;2023-08-06T02:54:43;5.60;;;1.95;;
16870;SDS011;8552;48.120;-1.456;2023-08-06T02:57:16;9.00;;;1.67;;
16870;SDS011;8552;48.120;-1.456;2023-08-06T02:59:42;8.60;;;2.05;;
16870;SDS011;8552;48.120;-1.456;2023-08-06T03:02:10;7.60;;;1.85;;
16870;SDS011;8552;48.120;-1.456;2023-08-06T03:04:36;5.82;;;1.77;;
16870;SDS011;8552;48.120;-1.456;2023-08-06T03:07:04;7.45;;;1.60;;
16870;SDS011;8552;48.120;-1.456;2023-08-06T03:09:39;10.63;;;1.85;;
16870;SDS011;8552;48.120;-1.456;2023-08-06T03:12:10;10.18;;;1.52;;
16870;SDS011;8552;48.120;-1.456;2023-08-06T03:14:38;8.25;;;1.77;;
16870;SDS011;8552;48.120;-1.456;2023-08-06T03:17:07;17.38;;;1.90;;
16870;SDS011;8552;48.120;-1.456;2023-08-06T03:19:33;6.70;;;1.77;;
16870;SDS011;8552;48.120;-1.456;2023-08-06T03:21:59;7.95;;;1.92;;
16870;SDS011;8552;48.120;-1.456;2023-08-06T03:24:24;4.85;;;1.50;;
16870;SDS011;8552;48.120;-1.456;2023-08-06T03:26:53;7.10;;;1.90;;
16870;SDS011;8552;48.120;-1.456;2023-08-06T03:29:21;10.15;;;2.40;;
16870;SDS011;8552;48.120;-1.456;2023-08-06T03:31:47;4.32;;;1.48;;
16870;SDS011;8552;48.120;-1.456;2023-08-06T03:34:13;5.35;;;1.63;;
16870;SDS011;8552;48.120;-1.456;2023-08-06T03:36:39;6.20;;;1.95;;
16870;SDS011;8552;48.120;-1.456;2023-08-06T03:39:04;7.13;;;1.35;;
16870;SDS011;8552;48.120;-1.456;2023-08-06T03:41:37;4.57;;;1.88;;
16870;SDS011;8552;48.120;-1.456;2023-08-06T03:44:06;12.82;;;2.47;;
16870;SDS011;8552;48.120;-1.456;2023-08-06T03:46:32;10.18;;;2.22;;
16870;SDS011;8552;48.120;-1.456;2023-08-06T03:48:59;8.15;;;1.70;;
16870;SDS011;8552;48.120;-1.456;2023-08-06T03:51:25;5.20;;;2.03;;
16870;SDS011;8552;48.120;-1.456;2023-08-06T03:53:51;6.40;;;2.45;;
16870;SDS011;8552;48.120;-1.456;2023-08-06T03:56:17;9.52;;;1.80;;
16870;SDS011;8552;48.120;-1.456;2023-08-06T03:58:43;6.68;;;2.08;;
16870;SDS011;8552;48.120;-1.456;2023-08-06T04:01:09;9.45;;;1.95;;
16870;SDS011;8552;48.120;-1.456;2023-08-06T04:03:34;6.13;;;1.70;;
16870;SDS011;8552;48.120;-1.456;2023-08-06T04:06:03;7.65;;;1.83;;
16870;SDS011;8552;48.120;-1.456;2023-08-06T04:08:29;6.28;;;1.73;;
16870;SDS011;8552;48.120;-1.456;2023-08-06T04:10:58;7.82;;;1.65;;
16870;SDS011;8552;48.120;-1.456;2023-08-06T04:13:26;8.25;;;1.60;;
16870;SDS011;8552;48.120;-1.456;2023-08-06T04:15:52;8.65;;;2.17;;
16870;SDS011;8552;48.120;-1.456;2023-08-06T04:18:23;6.93;;;1.80;;
16870;SDS011;8552;48.120;-1.456;2023-08-06T04:20:51;9.50;;;1.77;;
16870;SDS011;8552;48.120;-1.456;2023-08-06T04:23:20;11.98;;;1.85;;
16870;SDS011;8552;48.120;-1.456;2023-08-06T04:25:49;10.20;;;2.08;;
16870;SDS011;8552;48.120;-1.456;2023-08-06T04:28:17;5.80;;;1.63;;
16870;SDS011;8552;48.120;-1.456;2023-08-06T04:30:43;9.90;;;1.70;;
16870;SDS011;8552;48.120;-1.456;2023-08-06T04:33:12;4.57;;;2.25;;
16870;SDS011;8552;48.120;-1.456;2023-08-06T04:35:38;6.45;;;2.05;;
16870;SDS011;8552;48.120;-1.456;2023-08-06T04:38:03;7.95;;;1.90;;
16870;SDS011;8552;48.120;-1.456;2023-08-06T04:40:29;15.63;;;3.53;;
16870;SDS011;8552;48.120;-1.456;2023-08-06T04:42:55;7.68;;;2.05;;
16870;SDS011;8552;48.120;-1.456;2023-08-06T04:45:21;7.90;;;1.90;;
16870;SDS011;8552;48.120;-1.456;2023-08-06T04:47:51;11.95;;;2.22;;
16870;SDS011;8552;48.120;-1.456;2023-08-06T04:50:19;3.85;;;1.58;;
16870;SDS011;8552;48.120;-1.456;2023-08-06T04:52:45;10.00;;;2.67;;
16870;SDS011;8552;48.120;-1.456;2023-08-06T04:55:11;11.40;;;1.90;;
16870;SDS011;8552;48.120;-1.456;2023-08-06T04:57:37;10.05;;;2.25;;
16870;SDS011;8552;48.120;-1.456;2023-08-06T05:00:03;3.28;;;1.30;;
16870;SDS011;8552;48.120;-1.456;2023-08-06T05:02:32;9.55;;;2.25;;
16870;SDS011;8552;48.120;-1.456;2023-08-06T05:04:59;6.85;;;1.50;;
16870;SDS011;8552;48.120;-1.456;2023-08-06T05:07:34;8.43;;;1.95;;
16870;SDS011;8552;48.120;-1.456;2023-08-06T05:10:00;9.23;;;2.90;;
16870;SDS011;8552;48.120;-1.456;2023-08-06T05:12:28;7.70;;;2.10;;
16870;SDS011;8552;48.120;-1.456;2023-08-06T05:14:53;6.07;;;1.45;;
16870;SDS011;8552;48.120;-1.456;2023-08-06T05:17:19;6.15;;;1.58;;
16870;SDS011;8552;48.120;-1.456;2023-08-06T05:19:45;7.25;;;1.40;;
16870;SDS011;8552;48.120;-1.456;2023-08-06T05:22:15;8.73;;;1.77;;
16870;SDS011;8552;48.120;-1.456;2023-08-06T05:24:41;9.85;;;2.15;;
16870;SDS011;8552;48.120;-1.456;2023-08-06T05:27:07;11.43;;;2.95;;
16870;SDS011;8552;48.120;-1.456;2023-08-06T05:29:32;6.07;;;2.25;;
16870;SDS011;8552;48.120;-1.456;2023-08-06T05:31:58;5.22;;;1.60;;
16870;SDS011;8552;48.120;-1.456;2023-08-06T05:34:24;5.55;;;1.80;;
16870;SDS011;8552;48.120;-1.456;2023-08-06T05:36:50;5.22;;;1.55;;
16870;SDS011;8552;48.120;-1.456;2023-08-06T05:39:15;8.82;;;1.80;;
16870;SDS011;8552;48.120;-1.456;2023-08-06T05:41:41;9.30;;;2.05;;
16870;SDS011;8552;48.120;-1.456;2023-08-06T05:44:07;14.85;;;2.85;;
16870;SDS011;8552;48.120;-1.456;2023-08-06T05:46:33;8.65;;;1.38;;
16870;SDS011;8552;48.120;-1.456;2023-08-06T05:48:58;10.95;;;2.40;;
16870;SDS011;8552;48.120;-1.456;2023-08-06T05:51:25;4.68;;;1.63;;
16870;SDS011;8552;48.120;-1.456;2023-08-06T05:53:52;13.27;;;3.03;;
16870;SDS011;8552;48.120;-1.456;2023-08-06T05:56:18;8.23;;;2.35;;
16870;SDS011;8552;48.120;-1.456;2023-08-06T05:58:43;6.68;;;1.90;;
16870;SDS011;8552;48.120;-1.456;2023-08-06T06:01:11;7.32;;;1.88;;
16870;SDS011;8552;48.120;-1.456;2023-08-06T06:03:37;9.93;;;2.33;;
16870;SDS011;8552;48.120;-1.456;2023-08-06T06:06:03;10.95;;;2.97;;
16870;SDS011;8552;48.120;-1.456;2023-08-06T06:08:28;9.23;;;1.95;;
16870;SDS011;8552;48.120;-1.456;2023-08-06T06:10:54;12.40;;;2.38;;
16870;SDS011;8552;48.120;-1.456;2023-08-06T06:13:20;11.38;;;2.55;;
16870;SDS011;8552;48.120;-1.456;2023-08-06T06:15:46;9.63;;;2.67;;
16870;SDS011;8552;48.120;-1.456;2023-08-06T06:18:12;10.07;;;2.55;;
16870;SDS011;8552;48.120;-1.456;2023-08-06T06:20:38;13.43;;;2.40;;
16870;SDS011;8552;48.120;-1.456;2023-08-06T06:23:04;13.07;;;2.58;;
16870;SDS011;8552;48.120;-1.456;2023-08-06T06:25:30;10.82;;;2.30;;
16870;SDS011;8552;48.120;-1.456;2023-08-06T06:27:55;6.03;;;1.88;;
16870;SDS011;8552;48.120;-1.456;2023-08-06T06:30:23;10.65;;;2.17;;
16870;SDS011;8552;48.120;-1.456;2023-08-06T06:32:49;9.10;;;2.88;;
16870;SDS011;8552;48.120;-1.456;2023-08-06T06:35:17;13.05;;;2.33;;
16870;SDS011;8552;48.120;-1.456;2023-08-06T06:37:43;10.95;;;3.00;;
16870;SDS011;8552;48.120;-1.456;2023-08-06T06:40:09;13.80;;;2.33;;
16870;SDS011;8552;48.120;-1.456;2023-08-06T06:42:35;12.07;;;2.45;;
16870;SDS011;8552;48.120;-1.456;2023-08-06T06:45:01;11.80;;;3.33;;
16870;SDS011;8552;48.120;-1.456;2023-08-06T06:47:26;13.57;;;3.28;;
16870;SDS011;8552;48.120;-1.456;2023-08-06T06:49:52;9.88;;;3.08;;
16870;SDS011;8552;48.120;-1.456;2023-08-06T06:52:18;13.00;;;2.72;;
16870;SDS011;8552;48.120;-1.456;2023-08-06T06:54:43;9.88;;;3.03;;
16870;SDS011;8552;48.120;-1.456;2023-08-06T06:57:09;9.10;;;2.45;;
16870;SDS011;8552;48.120;-1.456;2023-08-06T06:59:35;11.80;;;2.75;;
16870;SDS011;8552;48.120;-1.456;2023-08-06T07:02:00;10.50;;;2.35;;
16870;SDS011;8552;48.120;-1.456;2023-08-06T07:04:26;10.40;;;3.15;;
16870;SDS011;8552;48.120;-1.456;2023-08-06T07:06:52;9.77;;;2.50;;
16870;SDS011;8552;48.120;-1.456;2023-08-06T07:09:18;10.68;;;2.55;;
16870;SDS011;8552;48.120;-1.456;2023-08-06T07:11:43;13.25;;;2.67;;
16870;SDS011;8552;48.120;-1.456;2023-08-06T07:14:09;12.18;;;2.95;;
16870;SDS011;8552;48.120;-1.456;2023-08-06T07:16:35;13.90;;;2.33;;
16870;SDS011;8552;48.120;-1.456;2023-08-06T07:19:00;8.07;;;2.47;;
16870;SDS011;8552;48.120;-1.456;2023-08-06T07:21:26;10.98;;;2.33;;
16870;SDS011;8552;48.120;-1.456;2023-08-06T07:23:52;14.05;;;3.13;;
16870;SDS011;8552;48.120;-1.456;2023-08-06T07:26:17;10.57;;;2.15;;
16870;SDS011;8552;48.120;-1.456;2023-08-06T07:28:43;11.40;;;2.70;;
16870;SDS011;8552;48.120;-1.456;2023-08-06T07:31:09;10.05;;;2.92;;
16870;SDS011;8552;48.120;-1.456;2023-08-06T07:33:35;18.85;;;3.22;;
16870;SDS011;8552;48.120;-1.456;2023-08-06T07:36:07;11.35;;;2.38;;
16870;SDS011;8552;48.120;-1.456;2023-08-06T07:38:33;6.72;;;1.95;;
16870;SDS011;8552;48.120;-1.456;2023-08-06T07:41:01;8.38;;;2.20;;
16870;SDS011;8552;48.120;-1.456;2023-08-06T07:43:27;7.43;;;2.13;;
16870;SDS011;8552;48.120;-1.456;2023-08-06T07:45:53;6.28;;;2.15;;
16870;SDS011;8552;48.120;-1.456;2023-08-06T07:48:18;15.63;;;2.60;;
16870;SDS011;8552;48.120;-1.456;2023-08-06T07:50:44;7.22;;;2.17;;
16870;SDS011;8552;48.120;-1.456;2023-08-06T07:53:15;11.68;;;2.85;;
16870;SDS011;8552;48.120;-1.456;2023-08-06T07:55:41;11.07;;;1.95;;
16870;SDS011;8552;48.120;-1.456;2023-08-06T07:58:07;7.30;;;1.95;;
16870;SDS011;8552;48.120;-1.456;2023-08-06T08:00:33;8.50;;;2.03;;
16870;SDS011;8552;48.120;-1.456;2023-08-06T08:02:59;8.32;;;2.25;;
16870;SDS011;8552;48.120;-1.456;2023-08-06T08:05:24;9.98;;;2.95;;
16870;SDS011;8552;48.120;-1.456;2023-08-06T08:07:50;8.60;;;2.03;;
16870;SDS011;8552;48.120;-1.456;2023-08-06T08:10:16;6.70;;;1.65;;
16870;SDS011;8552;48.120;-1.456;2023-08-06T08:12:42;8.95;;;2.88;;
16870;SDS011;8552;48.120;-1.456;2023-08-06T08:15:07;7.95;;;2.28;;
16870;SDS011;8552;48.120;-1.456;2023-08-06T08:17:33;6.20;;;2.05;;
16870;SDS011;8552;48.120;-1.456;2023-08-06T08:19:59;8.05;;;1.80;;
16870;SDS011;8552;48.120;-1.456;2023-08-06T08:22:25;8.05;;;1.80;;
16870;SDS011;8552;48.120;-1.456;2023-08-06T08:24:53;9.10;;;1.67;;
16870;SDS011;8552;48.120;-1.456;2023-08-06T08:27:19;7.43;;;1.98;;
16870;SDS011;8552;48.120;-1.456;2023-08-06T08:29:45;8.82;;;2.03;;
16870;SDS011;8552;48.120;-1.456;2023-08-06T08:32:11;5.90;;;1.60;;
16870;SDS011;8552;48.120;-1.456;2023-08-06T08:34:36;7.45;;;1.50;;
16870;SDS011;8552;48.120;-1.456;2023-08-06T08:37:02;6.97;;;1.63;;
16870;SDS011;8552;48.120;-1.456;2023-08-06T08:39:28;4.18;;;1.40;;
16870;SDS011;8552;48.120;-1.456;2023-08-06T08:41:54;6.70;;;1.83;;
16870;SDS011;8552;48.120;-1.456;2023-08-06T08:44:19;4.10;;;1.15;;
16870;SDS011;8552;48.120;-1.456;2023-08-06T08:46:45;6.28;;;1.65;;
16870;SDS011;8552;48.120;-1.456;2023-08-06T08:49:13;3.30;;;0.85;;
16870;SDS011;8552;48.120;-1.456;2023-08-06T08:51:38;2.78;;;0.73;;
16870;SDS011;8552;48.120;-1.456;2023-08-06T08:54:04;4.70;;;0.75;;
16870;SDS011;8552;48.120;-1.456;2023-08-06T08:56:33;3.10;;;0.80;;
16870;SDS011;8552;48.120;-1.456;2023-08-06T08:58:58;3.55;;;0.90;;
16870;SDS011;8552;48.120;-1.456;2023-08-06T09:01:24;2.75;;;1.10;;
16870;SDS011;8552;48.120;-1.456;2023-08-06T09:03:51;4.78;;;1.33;;
16870;SDS011;8552;48.120;-1.456;2023-08-06T09:06:19;4.75;;;1.25;;
16870;SDS011;8552;48.120;-1.456;2023-08-06T09:08:51;3.50;;;1.60;;
16870;SDS011;8552;48.120;-1.456;2023-08-06T09:11:27;4.13;;;1.38;;
16870;SDS011;8552;48.120;-1.456;2023-08-06T09:13:56;6.93;;;1.58;;
16870;SDS011;8552;48.120;-1.456;2023-08-06T09:16:23;4.78;;;1.38;;
16870;SDS011;8552;48.120;-1.456;2023-08-06T09:18:49;4.00;;;1.00;;
16870;SDS011;8552;48.120;-1.456;2023-08-06T09:21:14;10.20;;;1.33;;
16870;SDS011;8552;48.120;-1.456;2023-08-06T09:23:41;4.85;;;1.20;;
16870;SDS011;8552;48.120;-1.456;2023-08-06T09:26:07;2.42;;;0.90;;
16870;SDS011;8552;48.120;-1.456;2023-08-06T09:28:37;3.97;;;0.77;;
16870;SDS011;8552;48.120;-1.456;2023-08-06T09:31:04;1.77;;;0.82;;
16870;SDS011;8552;48.120;-1.456;2023-08-06T09:33:30;2.20;;;1.25;;
16870;SDS011;8552;48.120;-1.456;2023-08-06T09:36:02;2.33;;;0.80;;
16870;SDS011;8552;48.120;-1.456;2023-08-06T09:38:37;5.65;;;1.80;;
16870;SDS011;8552;48.120;-1.456;2023-08-06T09:41:07;7.30;;;2.03;;
16870;SDS011;8552;48.120;-1.456;2023-08-06T09:43:42;7.00;;;1.38;;
16870;SDS011;8552;48.120;-1.456;2023-08-06T09:46:12;3.70;;;0.90;;
16870;SDS011;8552;48.120;-1.456;2023-08-06T09:48:39;2.97;;;1.20;;
16870;SDS011;8552;48.120;-1.456;2023-08-06T09:51:06;5.60;;;1.38;;
16870;SDS011;8552;48.120;-1.456;2023-08-06T09:53:33;4.68;;;1.20;;
16870;SDS011;8552;48.120;-1.456;2023-08-06T09:56:00;4.50;;;1.30;;
16870;SDS011;8552;48.120;-1.456;2023-08-06T09:58:26;3.67;;;1.67;;
16870;SDS011;8552;48.120;-1.456;2023-08-06T10:00:53;6.10;;;3.03;;
16870;SDS011;8552;48.120;-1.456;2023-08-06T10:03:19;4.07;;;0.68;;
16870;SDS011;8552;48.120;-1.456;2023-08-06T10:05:45;2.85;;;0.70;;
16870;SDS011;8552;48.120;-1.456;2023-08-06T10:08:12;2.22;;;0.88;;
16870;SDS011;8552;48.120;-1.456;2023-08-06T10:10:37;2.72;;;0.75;;
16870;SDS011;8552;48.120;-1.456;2023-08-06T10:13:03;2.30;;;0.55;;
16870;SDS011;8552;48.120;-1.456;2023-08-06T10:15:32;3.75;;;0.60;;
16870;SDS011;8552;48.120;-1.456;2023-08-06T10:17:59;2.60;;;0.40;;
16870;SDS011;8552;48.120;-1.456;2023-08-06T10:20:26;4.43;;;0.75;;
16870;SDS011;8552;48.120;-1.456;2023-08-06T10:23:01;3.60;;;1.30;;
16870;SDS011;8552;48.120;-1.456;2023-08-06T10:25:40;3.72;;;1.10;;
16870;SDS011;8552;48.120;-1.456;2023-08-06T10:28:10;1.75;;;0.50;;
16870;SDS011;8552;48.120;-1.456;2023-08-06T10:30:42;5.38;;;0.90;;
16870;SDS011;8552;48.120;-1.456;2023-08-06T10:33:11;4.38;;;1.38;;
16870;SDS011;8552;48.120;-1.456;2023-08-06T10:38:11;3.88;;;0.73;;
16870;SDS011;8552;48.120;-1.456;2023-08-06T10:40:41;4.43;;;0.80;;
16870;SDS011;8552;48.120;-1.456;2023-08-06T10:43:30;4.47;;;0.88;;
16870;SDS011;8552;48.120;-1.456;2023-08-06T10:45:58;4.13;;;1.15;;
16870;SDS011;8552;48.120;-1.456;2023-08-06T10:48:33;1.40;;;1.20;;
16870;SDS011;8552;48.120;-1.456;2023-08-06T10:51:07;3.40;;;0.93;;
16870;SDS011;8552;48.120;-1.456;2023-08-06T10:53:37;2.70;;;1.10;;
16870;SDS011;8552;48.120;-1.456;2023-08-06T10:56:13;3.28;;;0.55;;
16870;SDS011;8552;48.120;-1.456;2023-08-06T10:58:39;2.78;;;0.80;;
16870;SDS011;8552;48.120;-1.456;2023-08-06T11:01:06;2.10;;;0.70;;
16870;SDS011;8552;48.120;-1.456;2023-08-06T11:03:32;1.83;;;0.50;;
16870;SDS011;8552;48.120;-1.456;2023-08-06T11:05:59;1.30;;;0.50;;
16870;SDS011;8552;48.120;-1.456;2023-08-06T11:08:27;2.72;;;0.70;;
16870;SDS011;8552;48.120;-1.456;2023-08-06T11:10:54;2.25;;;0.70;;
16870;SDS011;8552;48.120;-1.456;2023-08-06T11:13:20;2.13;;;0.50;;
16870;SDS011;8552;48.120;-1.456;2023-08-06T11:15:46;2.85;;;0.38;;
16870;SDS011;8552;48.120;-1.456;2023-08-06T11:18:12;0.80;;;0.47;;
16870;SDS011;8552;48.120;-1.456;2023-08-06T11:20:39;2.72;;;0.40;;
16870;SDS011;8552;48.120;-1.456;2023-08-06T11:23:05;1.92;;;0.57;;
16870;SDS011;8552;48.120;-1.456;2023-08-06T11:25:31;1.95;;;0.70;;
16870;SDS011;8552;48.120;-1.456;2023-08-06T11:28:02;2.33;;;0.70;;
16870;SDS011;8552;48.120;-1.456;2023-08-06T11:30:27;1.27;;;0.50;;
16870;SDS011;8552;48.120;-1.456;2023-08-06T11:32:53;0.65;;;0.60;;
16870;SDS011;8552;48.120;-1.456;2023-08-06T11:35:19;0.98;;;0.50;;
16870;SDS011;8552;48.120;-1.456;2023-08-06T11:37:45;4.40;;;0.57;;
16870;SDS011;8552;48.120;-1.456;2023-08-06T11:40:11;2.35;;;0.70;;
16870;SDS011;8552;48.120;-1.456;2023-08-06T11:42:37;2.22;;;0.47;;
16870;SDS011;8552;48.120;-1.456;2023-08-06T11:45:03;2.38;;;1.00;;
16870;SDS011;8552;48.120;-1.456;2023-08-06T11:47:29;0.95;;;0.35;;
16870;SDS011;8552;48.120;-1.456;2023-08-06T11:49:55;1.25;;;0.50;;
16870;SDS011;8552;48.120;-1.456;2023-08-06T11:55:04;1.83;;;0.50;;
16870;SDS011;8552;48.120;-1.456;2023-08-06T11:57:39;0.98;;;0.25;;
16870;SDS011;8552;48.120;-1.456;2023-08-06T12:00:10;2.97;;;0.57;;
16870;SDS011;8552;48.120;-1.456;2023-08-06T12:02:40;1.35;;;0.30;;
16870;SDS011;8552;48.120;-1.456;2023-08-06T12:05:11;2.05;;;0.40;;
16870;SDS011;8552;48.120;-1.456;2023-08-06T12:07:38;0.82;;;0.63;;
16870;SDS011;8552;48.120;-1.456;2023-08-06T12:10:09;2.15;;;0.50;;
16870;SDS011;8552;48.120;-1.456;2023-08-06T12:12:35;4.75;;;0.75;;
16870;SDS011;8552;48.120;-1.456;2023-08-06T12:15:02;2.17;;;0.40;;
16870;SDS011;8552;48.120;-1.456;2023-08-06T12:17:28;1.15;;;0.63;;
16870;SDS011;8552;48.120;-1.456;2023-08-06T12:19:54;1.90;;;0.77;;
16870;SDS011;8552;48.120;-1.456;2023-08-06T12:22:20;0.60;;;0.45;;
16870;SDS011;8552;48.120;-1.456;2023-08-06T12:24:46;1.40;;;0.52;;
16870;SDS011;8552;48.120;-1.456;2023-08-06T12:27:13;2.13;;;0.52;;
16870;SDS011;8552;48.120;-1.456;2023-08-06T12:29:46;0.73;;;0.50;;
16870;SDS011;8552;48.120;-1.456;2023-08-06T12:32:13;3.40;;;0.60;;
16870;SDS011;8552;48.120;-1.456;2023-08-06T12:34:39;2.88;;;0.50;;
16870;SDS011;8552;48.120;-1.456;2023-08-06T12:37:06;2.00;;;0.40;;
16870;SDS011;8552;48.120;-1.456;2023-08-06T12:39:34;1.55;;;0.40;;
16870;SDS011;8552;48.120;-1.456;2023-08-06T12:42:01;0.50;;;0.30;;
16870;SDS011;8552;48.120;-1.456;2023-08-06T12:44:28;1.05;;;0.43;;
16870;SDS011;8552;48.120;-1.456;2023-08-06T12:46:54;2.35;;;0.70;;
16870;SDS011;8552;48.120;-1.456;2023-08-06T12:49:20;2.05;;;0.52;;
16870;SDS011;8552;48.120;-1.456;2023-08-06T12:51:47;1.20;;;0.40;;
16870;SDS011;8552;48.120;-1.456;2023-08-06T12:54:13;2.25;;;0.47;;
16870;SDS011;8552;48.120;-1.456;2023-08-06T12:56:39;2.85;;;0.52;;
16870;SDS011;8552;48.120;-1.456;2023-08-06T12:59:04;3.22;;;0.45;;
16870;SDS011;8552;48.120;-1.456;2023-08-06T13:01:30;0.90;;;0.30;;
16870;SDS011;8552;48.120;-1.456;2023-08-06T13:03:56;1.08;;;0.30;;
16870;SDS011;8552;48.120;-1.456;2023-08-06T13:06:22;1.02;;;0.40;;
16870;SDS011;8552;48.120;-1.456;2023-08-06T13:08:48;0.73;;;0.30;;
16870;SDS011;8552;48.120;-1.456;2023-08-06T13:11:14;0.90;;;0.47;;
16870;SDS011;8552;48.120;-1.456;2023-08-06T13:13:39;0.73;;;0.40;;
16870;SDS011;8552;48.120;-1.456;2023-08-06T13:16:05;1.58;;;0.50;;
16870;SDS011;8552;48.120;-1.456;2023-08-06T13:18:32;1.83;;;0.55;;
16870;SDS011;8552;48.120;-1.456;2023-08-06T13:20:58;2.17;;;0.60;;
16870;SDS011;8552;48.120;-1.456;2023-08-06T13:23:24;1.58;;;0.60;;
16870;SDS011;8552;48.120;-1.456;2023-08-06T13:25:49;2.97;;;0.68;;
16870;SDS011;8552;48.120;-1.456;2023-08-06T13:28:15;2.25;;;0.82;;
16870;SDS011;8552;48.120;-1.456;2023-08-06T13:30:41;0.65;;;0.35;;
16870;SDS011;8552;48.120;-1.456;2023-08-06T13:33:07;0.50;;;0.50;;
16870;SDS011;8552;48.120;-1.456;2023-08-06T13:35:34;2.22;;;0.63;;
16870;SDS011;8552;48.120;-1.456;2023-08-06T13:37:59;1.83;;;0.75;;
16870;SDS011;8552;48.120;-1.456;2023-08-06T13:40:27;2.15;;;0.55;;
16870;SDS011;8552;48.120;-1.456;2023-08-06T13:42:54;1.08;;;0.30;;
16870;SDS011;8552;48.120;-1.456;2023-08-06T13:45:20;1.75;;;0.40;;
16870;SDS011;8552;48.120;-1.456;2023-08-06T13:47:46;1.02;;;0.30;;
16870;SDS011;8552;48.120;-1.456;2023-08-06T13:50:12;2.15;;;0.52;;
16870;SDS011;8552;48.120;-1.456;2023-08-06T13:52:38;2.58;;;0.40;;
16870;SDS011;8552;48.120;-1.456;2023-08-06T13:55:05;2.75;;;1.00;;
16870;SDS011;8552;48.120;-1.456;2023-08-06T13:57:31;1.50;;;0.40;;
16870;SDS011;8552;48.120;-1.456;2023-08-06T13:59:57;1.65;;;0.70;;
16870;SDS011;8552;48.120;-1.456;2023-08-06T14:02:22;1.52;;;0.52;;
16870;SDS011;8552;48.120;-1.456;2023-08-06T14:04:48;0.68;;;0.38;;
16870;SDS011;8552;48.120;-1.456;2023-08-06T14:07:14;2.10;;;0.35;;
16870;SDS011;8552;48.120;-1.456;2023-08-06T14:09:40;2.30;;;0.40;;
16870;SDS011;8552;48.120;-1.456;2023-08-06T14:12:07;1.77;;;0.57;;
16870;SDS011;8552;48.120;-1.456;2023-08-06T14:14:33;1.02;;;0.45;;
16870;SDS011;8552;48.120;-1.456;2023-08-06T14:16:59;0.85;;;0.32;;
16870;SDS011;8552;48.120;-1.456;2023-08-06T14:19:24;2.13;;;0.35;;
16870;SDS011;8552;48.120;-1.456;2023-08-06T14:21:50;1.33;;;0.40;;
16870;SDS011;8552;48.120;-1.456;2023-08-06T14:24:16;1.35;;;0.60;;
16870;SDS011;8552;48.120;-1.456;2023-08-06T14:26:42;1.38;;;0.60;;
16870;SDS011;8552;48.120;-1.456;2023-08-06T14:29:08;0.85;;;0.38;;
16870;SDS011;8552;48.120;-1.456;2023-08-06T14:31:33;1.50;;;0.50;;
16870;SDS011;8552;48.120;-1.456;2023-08-06T14:33:59;3.00;;;0.55;;
16870;SDS011;8552;48.120;-1.456;2023-08-06T14:36:25;3.05;;;0.40;;
16870;SDS011;8552;48.120;-1.456;2023-08-06T14:38:51;1.75;;;0.80;;
16870;SDS011;8552;48.120;-1.456;2023-08-06T14:41:17;2.42;;;0.55;;
16870;SDS011;8552;48.120;-1.456;2023-08-06T14:43:42;1.30;;;0.47;;
16870;SDS011;8552;48.120;-1.456;2023-08-06T14:46:08;1.60;;;0.40;;
16870;SDS011;8552;48.120;-1.456;2023-08-06T14:48:34;3.03;;;0.60;;
16870;SDS011;8552;48.120;-1.456;2023-08-06T14:51:00;1.08;;;0.57;;
16870;SDS011;8552;48.120;-1.456;2023-08-06T14:53:26;3.10;;;0.52;;
16870;SDS011;8552;48.120;-1.456;2023-08-06T14:55:51;3.55;;;0.82;;
16870;SDS011;8552;48.120;-1.456;2023-08-06T14:58:17;2.05;;;0.50;;
16870;SDS011;8552;48.120;-1.456;2023-08-06T15:00:44;1.27;;;0.60;;